sensor_id;sensor_type;location;lat;lon;timestamp;temperature;humidity
29207;DHT22;16247;50.840;4.382;2022-10-17T00:00:31;16.70;99.90
29207;DHT22;16247;50.840;4.382;2022-10-17T00:10:20;16.90;99.90
29207;DHT22;16247;50.840;4.382;2022-10-17T00:13:09;16.70;99.90
29207;DHT22;16247;50.840;4.382;2022-10-17T00:16:49;16.70;99.90
29207;DHT22;16247;50.840;4.382;2022-10-17T00:19:42;16.60;99.90
29207;DHT22;16247;50.840;4.382;2022-10-17T00:22:43;16.70;99.90
29207;DHT22;16247;50.840;4.382;2022-10-17T00:25:31;16.80;99.90
29207;DHT22;16247;50.840;4.382;2022-10-17T00:28:00;16.80;99.90
29207;DHT22;16247;50.840;4.382;2022-10-17T00:30:26;16.80;99.90
29207;DHT22;16247;50.840;4.382;2022-10-17T00:32:59;16.80;99.90
29207;DHT22;16247;50.840;4.382;2022-10-17T00:35:24;16.90;99.90
29207;DHT22;16247;50.840;4.382;2022-10-17T00:37:50;17.00;99.90
29207;DHT22;16247;50.840;4.382;2022-10-17T00:40:36;17.00;99.90
29207;DHT22;16247;50.840;4.382;2022-10-17T00:43:22;17.00;99.90
29207;DHT22;16247;50.840;4.382;2022-10-17T00:46:38;17.00;99.90
29207;DHT22;16247;50.840;4.382;2022-10-17T00:49:31;17.00;99.90
29207;DHT22;16247;50.840;4.382;2022-10-17T00:52:39;17.00;99.90
29207;DHT22;16247;50.840;4.382;2022-10-17T00:55:32;17.00;99.90
29207;DHT22;16247;50.840;4.382;2022-10-17T00:58:37;17.10;99.90
29207;DHT22;16247;50.840;4.382;2022-10-17T01:02:04;17.20;99.90
29207;DHT22;16247;50.840;4.382;2022-10-17T01:05:24;17.20;99.90
29207;DHT22;16247;50.840;4.382;2022-10-17T01:08:33;17.10;99.90
29207;DHT22;16247;50.840;4.382;2022-10-17T01:40:26;17.40;99.90
29207;DHT22;16247;50.840;4.382;2022-10-17T01:46:57;17.40;99.90
29207;DHT22;16247;50.840;4.382;2022-10-17T02:16:05;17.80;99.90
29207;DHT22;16247;50.840;4.382;2022-10-17T02:27:46;18.00;99.90
29207;DHT22;16247;50.840;4.382;2022-10-17T02:30:48;17.80;99.90
29207;DHT22;16247;50.840;4.382;2022-10-17T02:34:12;17.90;99.90
29207;DHT22;16247;50.840;4.382;2022-10-17T02:45:17;18.10;99.90
29207;DHT22;16247;50.840;4.382;2022-10-17T02:48:31;18.00;99.90
29207;DHT22;16247;50.840;4.382;2022-10-17T02:58:24;17.90;99.90
29207;DHT22;16247;50.840;4.382;2022-10-17T03:01:29;17.90;99.90
29207;DHT22;16247;50.840;4.382;2022-10-17T03:04:31;18.00;99.90
29207;DHT22;16247;50.840;4.382;2022-10-17T03:07:25;18.00;99.90
29207;DHT22;16247;50.840;4.382;2022-10-17T03:10:24;18.00;99.90
29207;DHT22;16247;50.840;4.382;2022-10-17T03:12:50;18.10;99.90
29207;DHT22;16247;50.840;4.382;2022-10-17T03:18:53;18.30;99.90
29207;DHT22;16247;50.840;4.382;2022-10-17T03:24:41;18.30;99.90
29207;DHT22;16247;50.840;4.382;2022-10-17T03:27:13;18.30;99.90
29207;DHT22;16247;50.840;4.382;2022-10-17T03:29:41;18.30;99.90
29207;DHT22;16247;50.840;4.382;2022-10-17T03:32:07;18.30;99.90
29207;DHT22;16247;50.840;4.382;2022-10-17T03:34:45;18.20;99.90
29207;DHT22;16247;50.840;4.382;2022-10-17T03:37:37;18.40;99.90
29207;DHT22;16247;50.840;4.382;2022-10-17T03:40:17;18.30;99.90
29207;DHT22;16247;50.840;4.382;2022-10-17T03:42:46;18.30;99.90
29207;DHT22;16247;50.840;4.382;2022-10-17T03:45:27;18.30;99.90
29207;DHT22;16247;50.840;4.382;2022-10-17T03:47:57;18.30;99.90
29207;DHT22;16247;50.840;4.382;2022-10-17T03:51:02;18.40;99.90
29207;DHT22;16247;50.840;4.382;2022-10-17T03:54:19;18.20;99.90
29207;DHT22;16247;50.840;4.382;2022-10-17T03:56:53;18.30;99.90
29207;DHT22;16247;50.840;4.382;2022-10-17T04:02:41;18.10;99.90
29207;DHT22;16247;50.840;4.382;2022-10-17T04:05:30;18.10;99.90
29207;DHT22;16247;50.840;4.382;2022-10-17T04:08:39;18.10;99.90
29207;DHT22;16247;50.840;4.382;2022-10-17T04:11:44;18.20;99.90
29207;DHT22;16247;50.840;4.382;2022-10-17T04:14:13;18.20;99.90
29207;DHT22;16247;50.840;4.382;2022-10-17T04:17:14;18.20;99.90
29207;DHT22;16247;50.840;4.382;2022-10-17T04:20:35;18.20;99.90
29207;DHT22;16247;50.840;4.382;2022-10-17T04:23:37;18.20;99.90
29207;DHT22;16247;50.840;4.382;2022-10-17T04:26:23;18.20;99.90
29207;DHT22;16247;50.840;4.382;2022-10-17T04:29:21;18.20;99.90
29207;DHT22;16247;50.840;4.382;2022-10-17T05:03:56;17.90;99.90
29207;DHT22;16247;50.840;4.382;2022-10-17T05:06:48;17.90;99.90
29207;DHT22;16247;50.840;4.382;2022-10-17T05:09:55;18.00;99.90
29207;DHT22;16247;50.840;4.382;2022-10-17T05:17:54;18.00;99.90
29207;DHT22;16247;50.840;4.382;2022-10-17T05:21:31;18.10;99.90
29207;DHT22;16247;50.840;4.382;2022-10-17T05:53:36;18.40;99.90
29207;DHT22;16247;50.840;4.382;2022-10-17T05:56:04;18.40;99.90
29207;DHT22;16247;50.840;4.382;2022-10-17T05:58:30;18.40;99.90
29207;DHT22;16247;50.840;4.382;2022-10-17T06:01:02;18.40;99.90
29207;DHT22;16247;50.840;4.382;2022-10-17T06:03:29;18.40;99.90
29207;DHT22;16247;50.840;4.382;2022-10-17T06:05:55;18.50;99.90
29207;DHT22;16247;50.840;4.382;2022-10-17T06:08:21;18.50;99.90
29207;DHT22;16247;50.840;4.382;2022-10-17T06:10:48;18.80;99.90
29207;DHT22;16247;50.840;4.382;2022-10-17T06:13:16;18.60;99.90
29207;DHT22;16247;50.840;4.382;2022-10-17T06:15:42;18.50;99.90
29207;DHT22;16247;50.840;4.382;2022-10-17T06:18:07;18.60;99.90
29207;DHT22;16247;50.840;4.382;2022-10-17T06:20:33;18.60;99.90
29207;DHT22;16247;50.840;4.382;2022-10-17T06:22:59;18.60;99.90
29207;DHT22;16247;50.840;4.382;2022-10-17T06:25:25;18.80;99.90
29207;DHT22;16247;50.840;4.382;2022-10-17T06:27:51;18.80;99.90
29207;DHT22;16247;50.840;4.382;2022-10-17T06:30:16;18.60;99.90
29207;DHT22;16247;50.840;4.382;2022-10-17T06:32:45;18.70;99.90
29207;DHT22;16247;50.840;4.382;2022-10-17T06:35:10;18.70;99.90
29207;DHT22;16247;50.840;4.382;2022-10-17T06:37:36;18.60;99.90
29207;DHT22;16247;50.840;4.382;2022-10-17T06:40:04;18.50;99.90
29207;DHT22;16247;50.840;4.382;2022-10-17T06:42:37;18.50;99.90
29207;DHT22;16247;50.840;4.382;2022-10-17T06:45:06;18.60;99.90
29207;DHT22;16247;50.840;4.382;2022-10-17T06:47:41;18.60;99.90
29207;DHT22;16247;50.840;4.382;2022-10-17T06:50:13;18.60;99.90
29207;DHT22;16247;50.840;4.382;2022-10-17T06:52:54;18.60;99.90
29207;DHT22;16247;50.840;4.382;2022-10-17T06:55:20;18.70;99.90
29207;DHT22;16247;50.840;4.382;2022-10-17T06:58:04;18.80;99.90
29207;DHT22;16247;50.840;4.382;2022-10-17T07:01:06;18.60;99.90
29207;DHT22;16247;50.840;4.382;2022-10-17T07:03:33;18.80;99.90
29207;DHT22;16247;50.840;4.382;2022-10-17T07:06:09;18.80;99.90
29207;DHT22;16247;50.840;4.382;2022-10-17T07:08:45;18.90;99.90
29207;DHT22;16247;50.840;4.382;2022-10-17T07:11:19;18.90;99.90
29207;DHT22;16247;50.840;4.382;2022-10-17T07:13:59;18.90;99.90
29207;DHT22;16247;50.840;4.382;2022-10-17T07:16:36;18.80;99.90
29207;DHT22;16247;50.840;4.382;2022-10-17T07:19:05;18.70;99.90
29207;DHT22;16247;50.840;4.382;2022-10-17T07:21:30;18.80;99.90
29207;DHT22;16247;50.840;4.382;2022-10-17T07:23:59;18.80;99.90
29207;DHT22;16247;50.840;4.382;2022-10-17T07:26:26;18.80;99.90
29207;DHT22;16247;50.840;4.382;2022-10-17T07:28:53;18.80;99.90
29207;DHT22;16247;50.840;4.382;2022-10-17T07:31:30;18.80;99.90
29207;DHT22;16247;50.840;4.382;2022-10-17T07:34:00;18.80;99.90
29207;DHT22;16247;50.840;4.382;2022-10-17T07:36:29;18.60;99.90
29207;DHT22;16247;50.840;4.382;2022-10-17T07:38:56;18.50;99.90
29207;DHT22;16247;50.840;4.382;2022-10-17T07:41:22;18.40;99.90
29207;DHT22;16247;50.840;4.382;2022-10-17T07:43:47;18.30;99.90
29207;DHT22;16247;50.840;4.382;2022-10-17T07:46:14;18.40;99.90
29207;DHT22;16247;50.840;4.382;2022-10-17T07:49:08;18.30;99.90
29207;DHT22;16247;50.840;4.382;2022-10-17T07:51:34;18.30;99.90
29207;DHT22;16247;50.840;4.382;2022-10-17T07:54:00;18.20;99.90
29207;DHT22;16247;50.840;4.382;2022-10-17T07:56:28;18.30;99.90
29207;DHT22;16247;50.840;4.382;2022-10-17T07:58:56;18.30;99.90
29207;DHT22;16247;50.840;4.382;2022-10-17T08:01:31;18.20;99.90
29207;DHT22;16247;50.840;4.382;2022-10-17T08:03:57;18.20;99.90
29207;DHT22;16247;50.840;4.382;2022-10-17T08:06:27;18.10;99.90
29207;DHT22;16247;50.840;4.382;2022-10-17T08:08:54;18.20;99.90
29207;DHT22;16247;50.840;4.382;2022-10-17T08:11:23;18.40;99.90
29207;DHT22;16247;50.840;4.382;2022-10-17T08:13:55;18.30;99.90
29207;DHT22;16247;50.840;4.382;2022-10-17T08:19:43;18.30;99.90
29207;DHT22;16247;50.840;4.382;2022-10-17T08:22:21;18.20;99.90
29207;DHT22;16247;50.840;4.382;2022-10-17T08:28:12;18.20;99.90
29207;DHT22;16247;50.840;4.382;2022-10-17T08:30:39;18.00;99.90
29207;DHT22;16247;50.840;4.382;2022-10-17T08:33:05;17.90;99.90
29207;DHT22;16247;50.840;4.382;2022-10-17T08:36:19;18.00;99.90
29207;DHT22;16247;50.840;4.382;2022-10-17T08:38:49;18.10;99.90
29207;DHT22;16247;50.840;4.382;2022-10-17T08:44:41;18.60;99.90
29207;DHT22;16247;50.840;4.382;2022-10-17T08:47:27;18.80;99.90
29207;DHT22;16247;50.840;4.382;2022-10-17T08:50:04;18.80;99.90
29207;DHT22;16247;50.840;4.382;2022-10-17T08:52:53;19.00;99.90
29207;DHT22;16247;50.840;4.382;2022-10-17T08:55:46;19.10;99.90
29207;DHT22;16247;50.840;4.382;2022-10-17T08:58:34;19.00;99.90
29207;DHT22;16247;50.840;4.382;2022-10-17T09:20:14;18.60;99.90
29207;DHT22;16247;50.840;4.382;2022-10-17T09:23:12;18.60;99.90
29207;DHT22;16247;50.840;4.382;2022-10-17T09:25:53;18.50;99.90
29207;DHT22;16247;50.840;4.382;2022-10-17T09:28:38;18.60;99.90
29207;DHT22;16247;50.840;4.382;2022-10-17T09:32:30;18.60;99.90
29207;DHT22;16247;50.840;4.382;2022-10-17T09:34:44;18.50;99.90
29207;DHT22;16247;50.840;4.382;2022-10-17T09:37:33;18.60;99.90
29207;DHT22;16247;50.840;4.382;2022-10-17T09:40:30;18.50;99.90
29207;DHT22;16247;50.840;4.382;2022-10-17T09:43:24;18.40;99.90
29207;DHT22;16247;50.840;4.382;2022-10-17T09:52:42;18.40;99.90
29207;DHT22;16247;50.840;4.382;2022-10-17T09:55:31;18.30;99.90
29207;DHT22;16247;50.840;4.382;2022-10-17T09:58:07;18.50;99.90
29207;DHT22;16247;50.840;4.382;2022-10-17T10:01:25;18.30;99.90
29207;DHT22;16247;50.840;4.382;2022-10-17T10:04:14;18.40;99.90
29207;DHT22;16247;50.840;4.382;2022-10-17T10:14:47;18.30;99.90
29207;DHT22;16247;50.840;4.382;2022-10-17T10:17:49;18.40;99.90
29207;DHT22;16247;50.840;4.382;2022-10-17T10:20:38;18.40;99.90
29207;DHT22;16247;50.840;4.382;2022-10-17T10:26:49;18.30;99.90
29207;DHT22;16247;50.840;4.382;2022-10-17T10:32:32;18.50;99.90
29207;DHT22;16247;50.840;4.382;2022-10-17T10:39:00;18.80;99.90
29207;DHT22;16247;50.840;4.382;2022-10-17T10:42:34;19.00;99.90
29207;DHT22;16247;50.840;4.382;2022-10-17T10:45:44;19.00;99.90
29207;DHT22;16247;50.840;4.382;2022-10-17T10:48:48;18.80;99.90
29207;DHT22;16247;50.840;4.382;2022-10-17T10:51:45;18.60;99.90
29207;DHT22;16247;50.840;4.382;2022-10-17T10:55:22;18.60;99.90
29207;DHT22;16247;50.840;4.382;2022-10-17T11:40:44;18.50;99.90
29207;DHT22;16247;50.840;4.382;2022-10-17T11:44:15;18.60;99.90
29207;DHT22;16247;50.840;4.382;2022-10-17T11:47:39;18.60;99.90
29207;DHT22;16247;50.840;4.382;2022-10-17T11:50:23;18.40;99.90
29207;DHT22;16247;50.840;4.382;2022-10-17T11:53:21;18.50;99.90
29207;DHT22;16247;50.840;4.382;2022-10-17T11:55:52;18.70;99.90
29207;DHT22;16247;50.840;4.382;2022-10-17T11:58:46;18.70;99.90
29207;DHT22;16247;50.840;4.382;2022-10-17T12:01:43;18.80;99.90
29207;DHT22;16247;50.840;4.382;2022-10-17T12:07:05;18.70;99.90
29207;DHT22;16247;50.840;4.382;2022-10-17T12:09:48;18.60;99.90
29207;DHT22;16247;50.840;4.382;2022-10-17T12:12:29;18.80;99.90
29207;DHT22;16247;50.840;4.382;2022-10-17T12:18:02;18.80;99.90
29207;DHT22;16247;50.840;4.382;2022-10-17T12:20:37;18.90;99.90
29207;DHT22;16247;50.840;4.382;2022-10-17T12:26:04;18.80;99.90
29207;DHT22;16247;50.840;4.382;2022-10-17T12:28:50;18.70;99.90
29207;DHT22;16247;50.840;4.382;2022-10-17T12:31:28;18.80;99.90
29207;DHT22;16247;50.840;4.382;2022-10-17T12:33:55;18.90;99.90
29207;DHT22;16247;50.840;4.382;2022-10-17T12:49:51;18.80;99.90
29207;DHT22;16247;50.840;4.382;2022-10-17T12:55:44;18.80;99.90
29207;DHT22;16247;50.840;4.382;2022-10-17T12:58:14;18.80;99.90
29207;DHT22;16247;50.840;4.382;2022-10-17T13:00:55;18.90;99.90
29207;DHT22;16247;50.840;4.382;2022-10-17T13:03:27;18.90;99.90
29207;DHT22;16247;50.840;4.382;2022-10-17T13:06:05;18.90;99.90
29207;DHT22;16247;50.840;4.382;2022-10-17T13:08:36;18.90;99.90
29207;DHT22;16247;50.840;4.382;2022-10-17T13:14:21;19.00;99.90
29207;DHT22;16247;50.840;4.382;2022-10-17T13:22:31;19.10;99.90
29207;DHT22;16247;50.840;4.382;2022-10-17T13:25:16;19.30;99.90
29207;DHT22;16247;50.840;4.382;2022-10-17T13:31:04;19.20;99.90
29207;DHT22;16247;50.840;4.382;2022-10-17T13:33:38;19.20;99.90
29207;DHT22;16247;50.840;4.382;2022-10-17T13:36:14;19.30;99.90
29207;DHT22;16247;50.840;4.382;2022-10-17T13:38:41;19.40;99.90
29207;DHT22;16247;50.840;4.382;2022-10-17T13:41:12;19.40;99.90
29207;DHT22;16247;50.840;4.382;2022-10-17T13:43:40;19.30;99.90
29207;DHT22;16247;50.840;4.382;2022-10-17T13:46:18;19.30;99.90
29207;DHT22;16247;50.840;4.382;2022-10-17T13:48:50;19.30;99.90
29207;DHT22;16247;50.840;4.382;2022-10-17T13:51:18;19.30;99.90
29207;DHT22;16247;50.840;4.382;2022-10-17T13:53:45;19.20;99.90
29207;DHT22;16247;50.840;4.382;2022-10-17T13:56:30;19.20;99.90
29207;DHT22;16247;50.840;4.382;2022-10-17T13:59:22;19.40;99.90
29207;DHT22;16247;50.840;4.382;2022-10-17T14:01:52;19.20;99.90
29207;DHT22;16247;50.840;4.382;2022-10-17T14:04:22;19.20;99.90
29207;DHT22;16247;50.840;4.382;2022-10-17T14:06:48;19.20;99.90
29207;DHT22;16247;50.840;4.382;2022-10-17T14:09:23;19.40;99.90
29207;DHT22;16247;50.840;4.382;2022-10-17T14:12:10;19.20;99.90
29207;DHT22;16247;50.840;4.382;2022-10-17T14:14:40;19.30;99.90
29207;DHT22;16247;50.840;4.382;2022-10-17T14:17:28;19.20;99.90
29207;DHT22;16247;50.840;4.382;2022-10-17T14:20:02;19.30;99.90
29207;DHT22;16247;50.840;4.382;2022-10-17T14:22:34;19.20;99.90
29207;DHT22;16247;50.840;4.382;2022-10-17T14:25:29;19.30;99.90
29207;DHT22;16247;50.840;4.382;2022-10-17T14:28:17;19.40;99.90
29207;DHT22;16247;50.840;4.382;2022-10-17T14:30:51;19.40;99.90
29207;DHT22;16247;50.840;4.382;2022-10-17T14:33:29;19.40;99.90
29207;DHT22;16247;50.840;4.382;2022-10-17T14:35:58;19.40;99.90
29207;DHT22;16247;50.840;4.382;2022-10-17T14:38:32;19.30;99.90
29207;DHT22;16247;50.840;4.382;2022-10-17T14:41:12;19.40;99.90
29207;DHT22;16247;50.840;4.382;2022-10-17T14:43:40;19.50;99.90
29207;DHT22;16247;50.840;4.382;2022-10-17T14:46:15;19.40;99.90
29207;DHT22;16247;50.840;4.382;2022-10-17T14:48:43;19.40;99.90
29207;DHT22;16247;50.840;4.382;2022-10-17T14:51:13;19.40;99.90
29207;DHT22;16247;50.840;4.382;2022-10-17T14:53:43;19.50;99.90
29207;DHT22;16247;50.840;4.382;2022-10-17T14:56:23;19.50;99.90
29207;DHT22;16247;50.840;4.382;2022-10-17T14:58:59;19.50;99.90
29207;DHT22;16247;50.840;4.382;2022-10-17T15:01:27;19.50;99.90
29207;DHT22;16247;50.840;4.382;2022-10-17T15:03:54;19.50;99.90
29207;DHT22;16247;50.840;4.382;2022-10-17T15:06:32;19.60;99.90
29207;DHT22;16247;50.840;4.382;2022-10-17T15:09:35;19.50;99.90
29207;DHT22;16247;50.840;4.382;2022-10-17T15:39:20;19.50;99.90
29207;DHT22;16247;50.840;4.382;2022-10-17T15:50:13;19.40;99.90
29207;DHT22;16247;50.840;4.382;2022-10-17T15:56:02;19.20;99.90
29207;DHT22;16247;50.840;4.382;2022-10-17T15:59:36;19.30;99.90
29207;DHT22;16247;50.840;4.382;2022-10-17T16:02:15;19.40;99.90
29207;DHT22;16247;50.840;4.382;2022-10-17T16:05:18;19.30;99.90
29207;DHT22;16247;50.840;4.382;2022-10-17T16:08:04;19.40;99.90
29207;DHT22;16247;50.840;4.382;2022-10-17T18:13:34;18.00;99.90
29207;DHT22;16247;50.840;4.382;2022-10-17T18:16:20;18.00;99.90
29207;DHT22;16247;50.840;4.382;2022-10-17T18:19:03;17.90;99.90
29207;DHT22;16247;50.840;4.382;2022-10-17T18:24:17;17.80;99.90
29207;DHT22;16247;50.840;4.382;2022-10-17T18:42:09;17.90;99.90
29207;DHT22;16247;50.840;4.382;2022-10-17T18:44:39;18.00;99.90
29207;DHT22;16247;50.840;4.382;2022-10-17T18:47:06;18.00;99.90
29207;DHT22;16247;50.840;4.382;2022-10-17T18:53:05;18.00;99.90
29207;DHT22;16247;50.840;4.382;2022-10-17T18:59:02;17.80;99.90
29207;DHT22;16247;50.840;4.382;2022-10-17T19:01:34;18.00;99.90
29207;DHT22;16247;50.840;4.382;2022-10-17T19:17:54;17.80;99.90
29207;DHT22;16247;50.840;4.382;2022-10-17T19:38:52;17.80;99.90
29207;DHT22;16247;50.840;4.382;2022-10-17T19:41:46;17.70;99.90
29207;DHT22;16247;50.840;4.382;2022-10-17T19:44:12;17.80;99.90
29207;DHT22;16247;50.840;4.382;2022-10-17T19:46:38;17.60;99.90
29207;DHT22;16247;50.840;4.382;2022-10-17T19:51:52;17.70;99.90
29207;DHT22;16247;50.840;4.382;2022-10-17T19:54:24;17.70;99.90
29207;DHT22;16247;50.840;4.382;2022-10-17T20:00:20;17.90;99.90
29207;DHT22;16247;50.840;4.382;2022-10-17T20:06:08;17.90;99.90
29207;DHT22;16247;50.840;4.382;2022-10-17T20:08:52;17.90;99.90
29207;DHT22;16247;50.840;4.382;2022-10-17T20:11:41;17.80;99.90
29207;DHT22;16247;50.840;4.382;2022-10-17T20:14:10;17.90;99.90
29207;DHT22;16247;50.840;4.382;2022-10-17T20:16:51;18.00;99.90
29207;DHT22;16247;50.840;4.382;2022-10-17T20:19:16;18.20;99.90
29207;DHT22;16247;50.840;4.382;2022-10-17T20:22:02;18.00;99.90
29207;DHT22;16247;50.840;4.382;2022-10-17T20:27:59;17.90;99.90
29207;DHT22;16247;50.840;4.382;2022-10-17T20:30:34;17.90;99.90
29207;DHT22;16247;50.840;4.382;2022-10-17T20:32:59;17.90;99.90
29207;DHT22;16247;50.840;4.382;2022-10-17T20:38:43;17.90;99.90
29207;DHT22;16247;50.840;4.382;2022-10-17T20:41:10;17.80;99.90
29207;DHT22;16247;50.840;4.382;2022-10-17T20:44:11;17.80;99.90
29207;DHT22;16247;50.840;4.382;2022-10-17T20:46:57;17.80;99.90
29207;DHT22;16247;50.840;4.382;2022-10-17T20:49:48;17.90;99.90
29207;DHT22;16247;50.840;4.382;2022-10-17T20:52:18;17.80;99.90
29207;DHT22;16247;50.840;4.382;2022-10-17T20:54:47;17.60;99.90
29207;DHT22;16247;50.840;4.382;2022-10-17T20:57:32;17.70;99.90
29207;DHT22;16247;50.840;4.382;2022-10-17T21:00:00;17.60;99.90
29207;DHT22;16247;50.840;4.382;2022-10-17T21:02:26;17.80;99.90
29207;DHT22;16247;50.840;4.382;2022-10-17T21:04:55;17.70;99.90
29207;DHT22;16247;50.840;4.382;2022-10-17T21:07:21;17.70;99.90
29207;DHT22;16247;50.840;4.382;2022-10-17T21:09:54;17.70;99.90
29207;DHT22;16247;50.840;4.382;2022-10-17T21:12:24;17.80;99.90
29207;DHT22;16247;50.840;4.382;2022-10-17T21:15:08;17.70;99.90
29207;DHT22;16247;50.840;4.382;2022-10-17T21:18:00;17.80;99.90
29207;DHT22;16247;50.840;4.382;2022-10-17T21:20:32;17.90;99.90
29207;DHT22;16247;50.840;4.382;2022-10-17T21:23:11;18.00;99.90
29207;DHT22;16247;50.840;4.382;2022-10-17T21:28:59;17.90;99.90
29207;DHT22;16247;50.840;4.382;2022-10-17T21:31:38;17.90;99.90
29207;DHT22;16247;50.840;4.382;2022-10-17T21:34:21;17.90;99.90
29207;DHT22;16247;50.840;4.382;2022-10-17T21:36:52;17.80;99.90
29207;DHT22;16247;50.840;4.382;2022-10-17T21:39:34;17.80;99.90
29207;DHT22;16247;50.840;4.382;2022-10-17T21:42:00;17.70;99.90
29207;DHT22;16247;50.840;4.382;2022-10-17T21:44:32;17.80;99.90
29207;DHT22;16247;50.840;4.382;2022-10-17T21:47:00;17.70;99.90
29207;DHT22;16247;50.840;4.382;2022-10-17T21:49:27;17.70;99.90
29207;DHT22;16247;50.840;4.382;2022-10-17T21:52:16;17.70;99.90
29207;DHT22;16247;50.840;4.382;2022-10-17T21:54:42;17.80;99.90
29207;DHT22;16247;50.840;4.382;2022-10-17T21:57:09;17.70;99.90
29207;DHT22;16247;50.840;4.382;2022-10-17T21:59:55;17.80;99.90
29207;DHT22;16247;50.840;4.382;2022-10-17T22:02:30;17.70;99.90
29207;DHT22;16247;50.840;4.382;2022-10-17T22:04:58;17.70;99.90
29207;DHT22;16247;50.840;4.382;2022-10-17T22:07:24;17.70;99.90
29207;DHT22;16247;50.840;4.382;2022-10-17T22:09:53;17.70;99.90
29207;DHT22;16247;50.840;4.382;2022-10-17T22:12:19;17.60;99.90
29207;DHT22;16247;50.840;4.382;2022-10-17T22:14:52;17.60;99.90
29207;DHT22;16247;50.840;4.382;2022-10-17T22:17:20;17.60;99.90
29207;DHT22;16247;50.840;4.382;2022-10-17T22:20:01;17.50;99.90
29207;DHT22;16247;50.840;4.382;2022-10-17T22:25:55;17.40;99.90
29207;DHT22;16247;50.840;4.382;2022-10-17T22:28:25;17.30;99.90
29207;DHT22;16247;50.840;4.382;2022-10-17T22:31:03;17.40;99.90
29207;DHT22;16247;50.840;4.382;2022-10-17T22:36:50;17.40;99.90
29207;DHT22;16247;50.840;4.382;2022-10-17T22:39:18;17.40;99.90
29207;DHT22;16247;50.840;4.382;2022-10-17T22:41:47;17.30;99.90
29207;DHT22;16247;50.840;4.382;2022-10-17T22:47:27;17.40;99.90
29207;DHT22;16247;50.840;4.382;2022-10-17T22:49:57;17.40;99.90
29207;DHT22;16247;50.840;4.382;2022-10-17T22:52:28;17.40;99.90
29207;DHT22;16247;50.840;4.382;2022-10-17T22:54:55;17.50;99.90
29207;DHT22;16247;50.840;4.382;2022-10-17T22:57:24;17.70;99.90
29207;DHT22;16247;50.840;4.382;2022-10-17T22:59:50;17.40;99.90
29207;DHT22;16247;50.840;4.382;2022-10-17T23:02:16;17.50;99.90
29207;DHT22;16247;50.840;4.382;2022-10-17T23:04:45;17.50;99.90
29207;DHT22;16247;50.840;4.382;2022-10-17T23:07:18;17.40;99.90
29207;DHT22;16247;50.840;4.382;2022-10-17T23:09:50;17.60;99.90
29207;DHT22;16247;50.840;4.382;2022-10-17T23:12:16;17.70;99.90
29207;DHT22;16247;50.840;4.382;2022-10-17T23:14:42;17.60;99.90
29207;DHT22;16247;50.840;4.382;2022-10-17T23:17:12;17.60;99.90
29207;DHT22;16247;50.840;4.382;2022-10-17T23:19:41;17.50;99.90
29207;DHT22;16247;50.840;4.382;2022-10-17T23:22:10;17.50;99.90
29207;DHT22;16247;50.840;4.382;2022-10-17T23:24:39;17.50;99.90
29207;DHT22;16247;50.840;4.382;2022-10-17T23:27:09;17.50;99.90
29207;DHT22;16247;50.840;4.382;2022-10-17T23:29:36;17.70;99.90
29207;DHT22;16247;50.840;4.382;2022-10-17T23:32:02;17.80;99.90
29207;DHT22;16247;50.840;4.382;2022-10-17T23:35:02;17.60;99.90
29207;DHT22;16247;50.840;4.382;2022-10-17T23:37:32;17.60;99.90
29207;DHT22;16247;50.840;4.382;2022-10-17T23:46:21;17.50;99.90
29207;DHT22;16247;50.840;4.382;2022-10-17T23:48:50;17.70;99.90
29207;DHT22;16247;50.840;4.382;2022-10-17T23:51:42;17.50;99.90
29207;DHT22;16247;50.840;4.382;2022-10-17T23:54:13;17.50;99.90
29207;DHT22;16247;50.840;4.382;2022-10-17T23:57:05;17.50;99.90
29207;DHT22;16247;50.840;4.382;2022-10-17T23:59:53;17.40;99.90
